sensor_id;sensor_type;location;lat;lon;timestamp;pressure;altitude;pressure_sealevel;temperature;humidity
69630;BME280;56857;52.212;5.496;2023-04-27T00:00:27;102185.50;;;3.76;100.00
69630;BME280;56857;52.212;5.496;2023-04-27T00:02:53;102190.94;;;3.73;100.00
69630;BME280;56857;52.212;5.496;2023-04-27T00:05:18;102192.78;;;3.71;100.00
69630;BME280;56857;52.212;5.496;2023-04-27T00:07:43;102195.72;;;3.66;100.00
69630;BME280;56857;52.212;5.496;2023-04-27T00:10:09;102191.47;;;3.64;100.00
69630;BME280;56857;52.212;5.496;2023-04-27T00:12:34;102194.19;;;3.62;100.00
69630;BME280;56857;52.212;5.496;2023-04-27T00:15:00;102189.13;;;3.59;100.00
69630;BME280;56857;52.212;5.496;2023-04-27T00:17:25;102195.47;;;3.55;100.00
69630;BME280;56857;52.212;5.496;2023-04-27T00:19:50;102205.25;;;3.53;100.00
69630;BME280;56857;52.212;5.496;2023-04-27T00:22:15;102189.59;;;3.52;100.00
69630;BME280;56857;52.212;5.496;2023-04-27T00:24:41;102190.72;;;3.47;100.00
69630;BME280;56857;52.212;5.496;2023-04-27T00:27:06;102196.38;;;3.40;100.00
69630;BME280;56857;52.212;5.496;2023-04-27T00:29:32;102204.53;;;3.35;100.00
69630;BME280;56857;52.212;5.496;2023-04-27T00:31:57;102201.91;;;3.35;100.00
69630;BME280;56857;52.212;5.496;2023-04-27T00:34:22;102201.97;;;3.34;100.00
69630;BME280;56857;52.212;5.496;2023-04-27T00:36:48;102194.22;;;3.32;100.00
69630;BME280;56857;52.212;5.496;2023-04-27T00:39:13;102190.00;;;3.30;100.00
69630;BME280;56857;52.212;5.496;2023-04-27T00:41:38;102190.34;;;3.23;100.00
69630;BME280;56857;52.212;5.496;2023-04-27T00:44:04;102200.25;;;3.18;100.00
69630;BME280;56857;52.212;5.496;2023-04-27T00:46:30;102193.50;;;3.14;100.00
69630;BME280;56857;52.212;5.496;2023-04-27T00:48:56;102193.84;;;3.08;100.00
69630;BME280;56857;52.212;5.496;2023-04-27T00:51:22;102190.31;;;3.09;100.00
69630;BME280;56857;52.212;5.496;2023-04-27T00:53:48;102192.81;;;3.11;100.00
69630;BME280;56857;52.212;5.496;2023-04-27T00:56:16;102197.13;;;3.12;100.00
69630;BME280;56857;52.212;5.496;2023-04-27T00:58:41;102191.06;;;3.11;100.00
69630;BME280;56857;52.212;5.496;2023-04-27T01:01:06;102197.22;;;3.10;100.00
69630;BME280;56857;52.212;5.496;2023-04-27T01:03:31;102193.94;;;3.07;100.00
69630;BME280;56857;52.212;5.496;2023-04-27T01:05:57;102193.28;;;3.03;100.00
69630;BME280;56857;52.212;5.496;2023-04-27T01:08:23;102184.56;;;3.02;100.00
69630;BME280;56857;52.212;5.496;2023-04-27T01:10:49;102183.03;;;2.98;100.00
69630;BME280;56857;52.212;5.496;2023-04-27T01:13:15;102190.25;;;2.95;100.00
69630;BME280;56857;52.212;5.496;2023-04-27T01:15:40;102188.91;;;2.88;100.00
69630;BME280;56857;52.212;5.496;2023-04-27T01:18:05;102178.66;;;2.83;100.00
69630;BME280;56857;52.212;5.496;2023-04-27T01:20:31;102175.38;;;2.79;100.00
69630;BME280;56857;52.212;5.496;2023-04-27T01:22:57;102179.88;;;2.77;100.00
69630;BME280;56857;52.212;5.496;2023-04-27T01:25:23;102183.50;;;2.75;100.00
69630;BME280;56857;52.212;5.496;2023-04-27T01:27:48;102187.13;;;2.72;100.00
69630;BME280;56857;52.212;5.496;2023-04-27T01:30:14;102196.84;;;2.70;100.00
69630;BME280;56857;52.212;5.496;2023-04-27T01:32:39;102198.56;;;2.71;100.00
69630;BME280;56857;52.212;5.496;2023-04-27T01:35:05;102202.06;;;2.70;100.00
69630;BME280;56857;52.212;5.496;2023-04-27T01:37:30;102194.31;;;2.69;100.00
69630;BME280;56857;52.212;5.496;2023-04-27T01:39:56;102197.94;;;2.66;100.00
69630;BME280;56857;52.212;5.496;2023-04-27T01:42:21;102186.63;;;2.66;100.00
69630;BME280;56857;52.212;5.496;2023-04-27T01:44:47;102196.16;;;2.67;100.00
69630;BME280;56857;52.212;5.496;2023-04-27T01:47:14;102181.56;;;2.63;100.00
69630;BME280;56857;52.212;5.496;2023-04-27T01:49:40;102180.97;;;2.58;100.00
69630;BME280;56857;52.212;5.496;2023-04-27T01:52:05;102181.06;;;2.56;100.00
69630;BME280;56857;52.212;5.496;2023-04-27T01:54:31;102181.13;;;2.54;100.00
69630;BME280;56857;52.212;5.496;2023-04-27T01:56:57;102176.16;;;2.50;100.00
69630;BME280;56857;52.212;5.496;2023-04-27T01:59:22;102166.59;;;2.49;100.00
69630;BME280;56857;52.212;5.496;2023-04-27T02:01:48;102179.78;;;2.47;100.00
69630;BME280;56857;52.212;5.496;2023-04-27T02:04:13;102173.78;;;2.45;100.00
69630;BME280;56857;52.212;5.496;2023-04-27T02:06:38;102174.88;;;2.41;100.00
69630;BME280;56857;52.212;5.496;2023-04-27T02:09:04;102179.34;;;2.39;100.00
69630;BME280;56857;52.212;5.496;2023-04-27T02:11:29;102176.06;;;2.36;100.00
69630;BME280;56857;52.212;5.496;2023-04-27T02:13:55;102178.69;;;2.36;100.00
69630;BME280;56857;52.212;5.496;2023-04-27T02:16:20;102172.78;;;2.32;100.00
69630;BME280;56857;52.212;5.496;2023-04-27T02:18:45;102174.63;;;2.30;100.00
69630;BME280;56857;52.212;5.496;2023-04-27T02:21:10;102177.41;;;2.27;100.00
69630;BME280;56857;52.212;5.496;2023-04-27T02:23:36;102176.72;;;2.23;100.00
69630;BME280;56857;52.212;5.496;2023-04-27T02:26:01;102177.59;;;2.24;100.00
69630;BME280;56857;52.212;5.496;2023-04-27T02:28:27;102177.50;;;2.25;100.00
69630;BME280;56857;52.212;5.496;2023-04-27T02:30:52;102172.34;;;2.24;100.00
69630;BME280;56857;52.212;5.496;2023-04-27T02:33:17;102171.66;;;2.20;100.00
69630;BME280;56857;52.212;5.496;2023-04-27T02:35:43;102167.53;;;2.16;100.00
69630;BME280;56857;52.212;5.496;2023-04-27T02:38:08;102163.38;;;2.12;100.00
69630;BME280;56857;52.212;5.496;2023-04-27T02:40:33;102154.00;;;2.08;100.00
69630;BME280;56857;52.212;5.496;2023-04-27T02:42:59;102157.53;;;2.07;100.00
69630;BME280;56857;52.212;5.496;2023-04-27T02:45:24;102149.88;;;2.04;100.00
69630;BME280;56857;52.212;5.496;2023-04-27T02:47:49;102155.19;;;2.02;100.00
69630;BME280;56857;52.212;5.496;2023-04-27T02:50:15;102154.41;;;2.00;100.00
69630;BME280;56857;52.212;5.496;2023-04-27T02:52:40;102143.28;;;1.97;100.00
69630;BME280;56857;52.212;5.496;2023-04-27T02:55:06;102136.44;;;1.94;100.00
69630;BME280;56857;52.212;5.496;2023-04-27T02:57:31;102150.28;;;1.96;100.00
69630;BME280;56857;52.212;5.496;2023-04-27T02:59:56;102143.28;;;1.97;100.00
69630;BME280;56857;52.212;5.496;2023-04-27T03:02:22;102153.75;;;1.97;100.00
69630;BME280;56857;52.212;5.496;2023-04-27T03:04:51;102155.41;;;1.98;100.00
69630;BME280;56857;52.212;5.496;2023-04-27T03:07:17;102152.81;;;1.98;100.00
69630;BME280;56857;52.212;5.496;2023-04-27T03:09:42;102151.91;;;1.99;100.00
69630;BME280;56857;52.212;5.496;2023-04-27T03:12:08;102153.75;;;1.97;100.00
69630;BME280;56857;52.212;5.496;2023-04-27T03:14:33;102159.97;;;1.94;100.00
69630;BME280;56857;52.212;5.496;2023-04-27T03:16:59;102153.97;;;1.92;100.00
69630;BME280;56857;52.212;5.496;2023-04-27T03:19:24;102162.75;;;1.91;100.00
69630;BME280;56857;52.212;5.496;2023-04-27T03:21:50;102158.78;;;1.84;100.00
69630;BME280;56857;52.212;5.496;2023-04-27T03:24:15;102165.84;;;1.82;100.00
69630;BME280;56857;52.212;5.496;2023-04-27T03:26:40;102167.63;;;1.81;100.00
69630;BME280;56857;52.212;5.496;2023-04-27T03:29:05;102171.06;;;1.82;100.00
69630;BME280;56857;52.212;5.496;2023-04-27T03:31:31;102178.91;;;1.82;100.00
69630;BME280;56857;52.212;5.496;2023-04-27T03:33:56;102176.31;;;1.82;100.00
69630;BME280;56857;52.212;5.496;2023-04-27T03:36:21;102169.56;;;1.78;100.00
69630;BME280;56857;52.212;5.496;2023-04-27T03:38:47;102167.00;;;1.76;100.00
69630;BME280;56857;52.212;5.496;2023-04-27T03:41:12;102163.53;;;1.76;100.00
69630;BME280;56857;52.212;5.496;2023-04-27T03:43:37;102165.31;;;1.75;100.00
69630;BME280;56857;52.212;5.496;2023-04-27T03:46:03;102167.16;;;1.73;100.00
69630;BME280;56857;52.212;5.496;2023-04-27T03:48:28;102162.97;;;1.71;100.00
69630;BME280;56857;52.212;5.496;2023-04-27T03:50:53;102169.09;;;1.70;100.00
69630;BME280;56857;52.212;5.496;2023-04-27T03:53:19;102170.88;;;1.69;100.00
69630;BME280;56857;52.212;5.496;2023-04-27T03:55:44;102163.97;;;1.68;100.00
69630;BME280;56857;52.212;5.496;2023-04-27T03:58:10;102169.19;;;1.68;100.00
69630;BME280;56857;52.212;5.496;2023-04-27T04:00:36;102175.34;;;1.67;100.00
69630;BME280;56857;52.212;5.496;2023-04-27T04:03:02;102176.34;;;1.65;100.00
69630;BME280;56857;52.212;5.496;2023-04-27T04:05:30;102170.59;;;1.58;100.00
69630;BME280;56857;52.212;5.496;2023-04-27T04:07:56;102178.75;;;1.52;100.00
69630;BME280;56857;52.212;5.496;2023-04-27T04:10:22;102174.50;;;1.49;100.00
69630;BME280;56857;52.212;5.496;2023-04-27T04:12:48;102174.56;;;1.48;100.00
69630;BME280;56857;52.212;5.496;2023-04-27T04:15:13;102178.22;;;1.45;100.00
69630;BME280;56857;52.212;5.496;2023-04-27T04:17:38;102178.38;;;1.42;100.00
69630;BME280;56857;52.212;5.496;2023-04-27T04:20:04;102173.19;;;1.41;100.00
69630;BME280;56857;52.212;5.496;2023-04-27T04:22:30;102169.66;;;1.42;100.00
69630;BME280;56857;52.212;5.496;2023-04-27T04:24:55;102168.66;;;1.44;100.00
69630;BME280;56857;52.212;5.496;2023-04-27T04:27:20;102170.38;;;1.45;100.00
69630;BME280;56857;52.212;5.496;2023-04-27T04:29:46;102180.72;;;1.47;100.00
69630;BME280;56857;52.212;5.496;2023-04-27T04:32:11;102180.72;;;1.47;100.00
69630;BME280;56857;52.212;5.496;2023-04-27T04:34:37;102190.19;;;1.49;100.00
69630;BME280;56857;52.212;5.496;2023-04-27T04:37:02;102195.31;;;1.51;100.00
69630;BME280;56857;52.212;5.496;2023-04-27T04:39:31;102197.03;;;1.52;100.00
69630;BME280;56857;52.212;5.496;2023-04-27T04:41:56;102200.50;;;1.52;100.00
69630;BME280;56857;52.212;5.496;2023-04-27T04:44:21;102207.34;;;1.55;100.00
69630;BME280;56857;52.212;5.496;2023-04-27T04:46:47;102211.63;;;1.56;100.00
69630;BME280;56857;52.212;5.496;2023-04-27T04:49:12;102208.19;;;1.55;100.00
69630;BME280;56857;52.212;5.496;2023-04-27T04:51:41;102197.72;;;1.55;100.00
69630;BME280;56857;52.212;5.496;2023-04-27T04:54:07;102207.25;;;1.56;100.00
69630;BME280;56857;52.212;5.496;2023-04-27T04:56:32;102208.75;;;1.60;100.00
69630;BME280;56857;52.212;5.496;2023-04-27T04:58:57;102213.00;;;1.63;100.00
69630;BME280;56857;52.212;5.496;2023-04-27T05:01:22;102211.00;;;1.68;100.00
69630;BME280;56857;52.212;5.496;2023-04-27T05:03:48;102206.47;;;1.72;100.00
69630;BME280;56857;52.212;5.496;2023-04-27T05:06:13;102204.47;;;1.77;100.00
69630;BME280;56857;52.212;5.496;2023-04-27T05:08:38;102201.59;;;1.81;100.00
69630;BME280;56857;52.212;5.496;2023-04-27T05:11:04;102207.50;;;1.85;100.00
69630;BME280;56857;52.212;5.496;2023-04-27T05:13:29;102198.56;;;1.89;100.00
69630;BME280;56857;52.212;5.496;2023-04-27T05:15:54;102202.91;;;1.90;100.00
69630;BME280;56857;52.212;5.496;2023-04-27T05:18:20;102201.97;;;1.91;100.00
69630;BME280;56857;52.212;5.496;2023-04-27T05:20:45;102208.72;;;1.95;100.00
69630;BME280;56857;52.212;5.496;2023-04-27T05:23:10;102199.97;;;1.96;100.00
69630;BME280;56857;52.212;5.496;2023-04-27T05:25:36;102205.88;;;2.00;100.00
69630;BME280;56857;52.212;5.496;2023-04-27T05:28:01;102206.72;;;2.00;100.00
69630;BME280;56857;52.212;5.496;2023-04-27T05:30:26;102204.88;;;2.02;100.00
69630;BME280;56857;52.212;5.496;2023-04-27T05:32:51;102209.97;;;2.05;100.00
69630;BME280;56857;52.212;5.496;2023-04-27T05:35:17;102216.72;;;2.09;100.00
69630;BME280;56857;52.212;5.496;2023-04-27T05:37:42;102210.22;;;2.17;100.00
69630;BME280;56857;52.212;5.496;2023-04-27T05:40:08;102222.06;;;2.24;100.00
69630;BME280;56857;52.212;5.496;2023-04-27T05:42:33;102228.81;;;2.28;100.00
69630;BME280;56857;52.212;5.496;2023-04-27T05:44:59;102226.09;;;2.29;100.00
69630;BME280;56857;52.212;5.496;2023-04-27T05:47:24;102232.00;;;2.33;100.00
69630;BME280;56857;52.212;5.496;2023-04-27T05:49:50;102234.47;;;2.36;100.00
69630;BME280;56857;52.212;5.496;2023-04-27T05:52:15;102228.16;;;2.40;100.00
69630;BME280;56857;52.212;5.496;2023-04-27T05:54:45;102217.53;;;2.43;100.00
69630;BME280;56857;52.212;5.496;2023-04-27T05:57:12;102218.13;;;2.48;100.00
69630;BME280;56857;52.212;5.496;2023-04-27T05:59:38;102209.19;;;2.52;100.00
69630;BME280;56857;52.212;5.496;2023-04-27T06:02:03;102214.16;;;2.57;100.00
69630;BME280;56857;52.212;5.496;2023-04-27T06:04:28;102211.22;;;2.63;100.00
69630;BME280;56857;52.212;5.496;2023-04-27T06:06:54;102215.28;;;2.69;100.00
69630;BME280;56857;52.212;5.496;2023-04-27T06:09:19;102217.56;;;2.75;100.00
69630;BME280;56857;52.212;5.496;2023-04-27T06:11:44;102213.72;;;2.81;100.00
69630;BME280;56857;52.212;5.496;2023-04-27T06:14:10;102207.22;;;2.88;100.00
69630;BME280;56857;52.212;5.496;2023-04-27T06:16:35;102209.34;;;2.97;100.00
69630;BME280;56857;52.212;5.496;2023-04-27T06:19:00;102215.16;;;3.02;100.00
69630;BME280;56857;52.212;5.496;2023-04-27T06:21:26;102214.81;;;3.08;100.00
69630;BME280;56857;52.212;5.496;2023-04-27T06:23:51;102217.06;;;3.14;100.00
69630;BME280;56857;52.212;5.496;2023-04-27T06:26:16;102216.84;;;3.19;100.00
69630;BME280;56857;52.212;5.496;2023-04-27T06:28:42;102216.47;;;3.25;100.00
69630;BME280;56857;52.212;5.496;2023-04-27T06:31:07;102213.59;;;3.30;100.00
69630;BME280;56857;52.212;5.496;2023-04-27T06:33:32;102218.47;;;3.36;100.00
69630;BME280;56857;52.212;5.496;2023-04-27T06:35:59;102221.56;;;3.42;100.00
69630;BME280;56857;52.212;5.496;2023-04-27T06:38:24;102221.22;;;3.48;100.00
69630;BME280;56857;52.212;5.496;2023-04-27T06:40:50;102219.00;;;3.57;100.00
69630;BME280;56857;52.212;5.496;2023-04-27T06:43:16;102222.00;;;3.65;100.00
69630;BME280;56857;52.212;5.496;2023-04-27T06:45:41;102226.06;;;3.70;100.00
69630;BME280;56857;52.212;5.496;2023-04-27T06:48:06;102224.75;;;3.78;100.00
69630;BME280;56857;52.212;5.496;2023-04-27T06:50:32;102223.34;;;3.86;100.00
69630;BME280;56857;52.212;5.496;2023-04-27T06:52:57;102217.63;;;3.94;100.00
69630;BME280;56857;52.212;5.496;2023-04-27T06:55:22;102217.19;;;4.02;100.00
69630;BME280;56857;52.212;5.496;2023-04-27T06:57:48;102225.47;;;4.10;100.00
69630;BME280;56857;52.212;5.496;2023-04-27T07:00:14;102217.94;;;4.18;100.00
69630;BME280;56857;52.212;5.496;2023-04-27T07:02:40;102221.59;;;4.30;100.00
69630;BME280;56857;52.212;5.496;2023-04-27T07:05:05;102213.88;;;4.41;100.00
69630;BME280;56857;52.212;5.496;2023-04-27T07:07:31;102224.47;;;4.54;100.00
69630;BME280;56857;52.212;5.496;2023-04-27T07:09:56;102215.16;;;4.62;100.00
69630;BME280;56857;52.212;5.496;2023-04-27T07:12:21;102218.25;;;4.69;100.00
69630;BME280;56857;52.212;5.496;2023-04-27T07:14:48;102218.69;;;4.76;100.00
69630;BME280;56857;52.212;5.496;2023-04-27T07:17:13;102223.38;;;4.85;100.00
69630;BME280;56857;52.212;5.496;2023-04-27T07:19:39;102223.72;;;4.93;100.00
69630;BME280;56857;52.212;5.496;2023-04-27T07:22:04;102231.09;;;5.01;100.00
69630;BME280;56857;52.212;5.496;2023-04-27T07:24:29;102230.72;;;5.07;100.00
69630;BME280;56857;52.212;5.496;2023-04-27T07:26:55;102237.91;;;5.18;100.00
69630;BME280;56857;52.212;5.496;2023-04-27T07:29:20;102237.41;;;5.25;100.00
69630;BME280;56857;52.212;5.496;2023-04-27T07:31:45;102235.97;;;5.34;100.00
69630;BME280;56857;52.212;5.496;2023-04-27T07:34:11;102234.41;;;5.44;100.00
69630;BME280;56857;52.212;5.496;2023-04-27T07:36:36;102228.53;;;5.53;100.00
69630;BME280;56857;52.212;5.496;2023-04-27T07:39:03;102224.47;;;5.62;100.00
69630;BME280;56857;52.212;5.496;2023-04-27T07:41:28;102226.56;;;5.70;100.00
69630;BME280;56857;52.212;5.496;2023-04-27T07:43:54;102227.72;;;5.78;100.00
69630;BME280;56857;52.212;5.496;2023-04-27T07:46:19;102235.84;;;5.88;100.00
69630;BME280;56857;52.212;5.496;2023-04-27T07:48:44;102230.81;;;5.98;100.00
69630;BME280;56857;52.212;5.496;2023-04-27T07:51:10;102217.88;;;6.08;100.00
69630;BME280;56857;52.212;5.496;2023-04-27T07:53:36;102216.19;;;6.19;100.00
69630;BME280;56857;52.212;5.496;2023-04-27T07:56:04;102217.13;;;6.31;100.00
69630;BME280;56857;52.212;5.496;2023-04-27T07:58:29;102207.63;;;6.41;100.00
69630;BME280;56857;52.212;5.496;2023-04-27T08:00:55;102220.75;;;6.54;100.00
69630;BME280;56857;52.212;5.496;2023-04-27T08:03:20;102215.44;;;6.67;100.00
69630;BME280;56857;52.212;5.496;2023-04-27T08:05:45;102214.56;;;6.79;100.00
69630;BME280;56857;52.212;5.496;2023-04-27T08:08:11;102221.47;;;6.93;100.00
69630;BME280;56857;52.212;5.496;2023-04-27T08:10:39;102216.88;;;7.08;100.00
69630;BME280;56857;52.212;5.496;2023-04-27T08:13:05;102216.72;;;7.22;100.00
69630;BME280;56857;52.212;5.496;2023-04-27T08:15:30;102225.88;;;7.40;100.00
69630;BME280;56857;52.212;5.496;2023-04-27T08:17:55;102225.56;;;7.56;100.00
69630;BME280;56857;52.212;5.496;2023-04-27T08:20:21;102220.19;;;7.69;100.00
69630;BME280;56857;52.212;5.496;2023-04-27T08:22:46;102215.53;;;7.84;100.00
69630;BME280;56857;52.212;5.496;2023-04-27T08:25:11;102217.84;;;8.00;100.00
69630;BME280;56857;52.212;5.496;2023-04-27T08:27:38;102219.44;;;8.13;100.00
69630;BME280;56857;52.212;5.496;2023-04-27T08:30:04;102214.88;;;8.27;100.00
69630;BME280;56857;52.212;5.496;2023-04-27T08:32:29;102211.75;;;8.44;100.00
69630;BME280;56857;52.212;5.496;2023-04-27T08:34:55;102220.03;;;8.62;100.00
69630;BME280;56857;52.212;5.496;2023-04-27T08:37:20;102214.72;;;8.73;100.00
69630;BME280;56857;52.212;5.496;2023-04-27T08:39:46;102219.13;;;8.84;100.00
69630;BME280;56857;52.212;5.496;2023-04-27T08:42:12;102221.88;;;8.94;100.00
69630;BME280;56857;52.212;5.496;2023-04-27T08:44:42;102211.84;;;9.09;100.00
69630;BME280;56857;52.212;5.496;2023-04-27T08:47:08;102213.81;;;9.27;100.00
69630;BME280;56857;52.212;5.496;2023-04-27T08:49:35;102216.03;;;9.43;100.00
69630;BME280;56857;52.212;5.496;2023-04-27T08:52:03;102216.53;;;9.58;100.00
69630;BME280;56857;52.212;5.496;2023-04-27T08:54:34;102209.94;;;9.73;100.00
69630;BME280;56857;52.212;5.496;2023-04-27T08:56:59;102212.69;;;9.93;100.00
69630;BME280;56857;52.212;5.496;2023-04-27T08:59:25;102214.19;;;10.07;100.00
69630;BME280;56857;52.212;5.496;2023-04-27T09:01:50;102217.59;;;10.18;100.00
69630;BME280;56857;52.212;5.496;2023-04-27T09:04:16;102215.16;;;10.36;100.00
69630;BME280;56857;52.212;5.496;2023-04-27T09:06:41;102212.31;;;10.68;100.00
69630;BME280;56857;52.212;5.496;2023-04-27T09:09:06;102212.50;;;11.06;100.00
69630;BME280;56857;52.212;5.496;2023-04-27T09:11:37;102214.59;;;11.41;100.00
69630;BME280;56857;52.212;5.496;2023-04-27T09:14:15;102210.63;;;11.74;100.00
69630;BME280;56857;52.212;5.496;2023-04-27T09:16:41;102210.53;;;12.13;100.00
69630;BME280;56857;52.212;5.496;2023-04-27T09:19:06;102214.69;;;12.53;100.00
69630;BME280;56857;52.212;5.496;2023-04-27T09:21:32;102205.81;;;13.26;100.00
69630;BME280;56857;52.212;5.496;2023-04-27T09:23:57;102202.94;;;13.89;94.43
69630;BME280;56857;52.212;5.496;2023-04-27T09:26:33;102203.19;;;14.38;93.62
69630;BME280;56857;52.212;5.496;2023-04-27T09:28:58;102198.16;;;14.94;91.17
69630;BME280;56857;52.212;5.496;2023-04-27T09:31:34;102196.69;;;15.32;87.62
69630;BME280;56857;52.212;5.496;2023-04-27T09:34:00;102197.31;;;15.83;79.82
69630;BME280;56857;52.212;5.496;2023-04-27T09:36:27;102196.50;;;16.30;78.40
69630;BME280;56857;52.212;5.496;2023-04-27T09:38:53;102189.78;;;16.65;72.47
69630;BME280;56857;52.212;5.496;2023-04-27T09:41:19;102188.06;;;17.04;75.16
69630;BME280;56857;52.212;5.496;2023-04-27T09:43:45;102190.19;;;17.31;64.43
69630;BME280;56857;52.212;5.496;2023-04-27T09:46:12;102190.63;;;17.35;68.82
69630;BME280;56857;52.212;5.496;2023-04-27T09:48:37;102185.22;;;17.58;65.60
69630;BME280;56857;52.212;5.496;2023-04-27T09:51:03;102191.22;;;17.98;61.25
69630;BME280;56857;52.212;5.496;2023-04-27T09:53:35;102187.06;;;18.46;60.90
69630;BME280;56857;52.212;5.496;2023-04-27T09:56:26;102190.63;;;18.68;53.83
69630;BME280;56857;52.212;5.496;2023-04-27T10:01:38;102180.28;;;19.58;45.30
69630;BME280;56857;52.212;5.496;2023-04-27T10:04:12;102176.25;;;19.68;47.71
69630;BME280;56857;52.212;5.496;2023-04-27T10:09:38;102174.00;;;19.72;44.26
69630;BME280;56857;52.212;5.496;2023-04-27T10:12:27;102173.22;;;19.57;45.36
69630;BME280;56857;52.212;5.496;2023-04-27T10:14:55;102168.50;;;19.59;43.65
69630;BME280;56857;52.212;5.496;2023-04-27T10:17:28;102171.56;;;19.56;45.30
69630;BME280;56857;52.212;5.496;2023-04-27T10:19:59;102174.91;;;19.58;44.05
69630;BME280;56857;52.212;5.496;2023-04-27T10:27:39;102169.47;;;20.69;40.40
69630;BME280;56857;52.212;5.496;2023-04-27T10:30:12;102167.16;;;20.66;38.87
69630;BME280;56857;52.212;5.496;2023-04-27T10:32:58;102171.09;;;20.63;39.05
69630;BME280;56857;52.212;5.496;2023-04-27T10:38:15;102165.31;;;20.66;38.15
69630;BME280;56857;52.212;5.496;2023-04-27T10:40:43;102160.34;;;20.96;38.50
69630;BME280;56857;52.212;5.496;2023-04-27T10:43:16;102162.03;;;20.84;37.91
69630;BME280;56857;52.212;5.496;2023-04-27T10:45:43;102166.78;;;20.89;39.04
69630;BME280;56857;52.212;5.496;2023-04-27T10:48:12;102164.72;;;21.17;38.40
69630;BME280;56857;52.212;5.496;2023-04-27T10:50:37;102161.84;;;21.25;38.19
69630;BME280;56857;52.212;5.496;2023-04-27T10:53:04;102163.91;;;21.03;37.99
69630;BME280;56857;52.212;5.496;2023-04-27T10:55:30;102164.94;;;21.09;38.19
69630;BME280;56857;52.212;5.496;2023-04-27T10:57:57;102166.19;;;21.06;37.20
69630;BME280;56857;52.212;5.496;2023-04-27T11:00:23;102163.91;;;20.90;37.66
69630;BME280;56857;52.212;5.496;2023-04-27T11:02:49;102162.63;;;20.93;38.36
69630;BME280;56857;52.212;5.496;2023-04-27T11:05:17;102155.19;;;21.15;38.68
69630;BME280;56857;52.212;5.496;2023-04-27T11:07:42;102157.28;;;21.39;38.70
69630;BME280;56857;52.212;5.496;2023-04-27T11:10:08;102149.13;;;21.59;38.54
69630;BME280;56857;52.212;5.496;2023-04-27T11:12:35;102158.00;;;21.93;37.62
69630;BME280;56857;52.212;5.496;2023-04-27T11:15:00;102152.16;;;21.96;36.37
69630;BME280;56857;52.212;5.496;2023-04-27T11:17:30;102149.59;;;22.14;36.56
69630;BME280;56857;52.212;5.496;2023-04-27T11:19:56;102137.13;;;22.27;36.09
69630;BME280;56857;52.212;5.496;2023-04-27T11:22:22;102133.97;;;22.30;35.56
69630;BME280;56857;52.212;5.496;2023-04-27T11:24:48;102122.69;;;22.39;35.57
69630;BME280;56857;52.212;5.496;2023-04-27T11:27:14;102121.66;;;22.72;33.79
69630;BME280;56857;52.212;5.496;2023-04-27T11:29:39;102126.06;;;22.98;35.03
69630;BME280;56857;52.212;5.496;2023-04-27T11:32:04;102126.31;;;23.40;34.88
69630;BME280;56857;52.212;5.496;2023-04-27T11:34:30;102115.25;;;23.60;34.61
69630;BME280;56857;52.212;5.496;2023-04-27T11:39:21;102114.09;;;22.81;32.89
69630;BME280;56857;52.212;5.496;2023-04-27T11:41:46;102111.19;;;23.07;33.67
69630;BME280;56857;52.212;5.496;2023-04-27T11:44:12;102112.16;;;23.38;33.93
69630;BME280;56857;52.212;5.496;2023-04-27T11:46:37;102112.66;;;23.90;34.08
69630;BME280;56857;52.212;5.496;2023-04-27T11:49:04;102112.13;;;24.12;32.83
69630;BME280;56857;52.212;5.496;2023-04-27T11:51:31;102110.28;;;24.42;33.13
69630;BME280;56857;52.212;5.496;2023-04-27T11:54:06;102106.16;;;24.82;32.52
69630;BME280;56857;52.212;5.496;2023-04-27T11:56:36;102110.03;;;25.09;32.42
69630;BME280;56857;52.212;5.496;2023-04-27T11:59:03;102108.19;;;25.22;31.91
69630;BME280;56857;52.212;5.496;2023-04-27T12:01:30;102095.69;;;25.20;30.40
69630;BME280;56857;52.212;5.496;2023-04-27T12:03:55;102101.66;;;24.99;29.81
69630;BME280;56857;52.212;5.496;2023-04-27T12:06:25;102096.28;;;24.45;30.24
69630;BME280;56857;52.212;5.496;2023-04-27T12:08:50;102099.19;;;24.14;31.13
69630;BME280;56857;52.212;5.496;2023-04-27T12:11:16;102098.94;;;24.03;30.91
69630;BME280;56857;52.212;5.496;2023-04-27T12:13:41;102100.38;;;23.88;31.38
69630;BME280;56857;52.212;5.496;2023-04-27T12:16:06;102097.97;;;23.79;31.47
69630;BME280;56857;52.212;5.496;2023-04-27T12:18:32;102092.28;;;23.69;32.33
69630;BME280;56857;52.212;5.496;2023-04-27T12:20:57;102085.19;;;23.68;32.82
69630;BME280;56857;52.212;5.496;2023-04-27T12:23:22;102089.00;;;23.60;33.16
69630;BME280;56857;52.212;5.496;2023-04-27T12:25:47;102085.25;;;23.43;33.18
69630;BME280;56857;52.212;5.496;2023-04-27T12:28:13;102086.59;;;23.34;32.96
69630;BME280;56857;52.212;5.496;2023-04-27T12:30:38;102080.47;;;23.20;33.23
69630;BME280;56857;52.212;5.496;2023-04-27T12:33:03;102075.13;;;23.13;32.45
69630;BME280;56857;52.212;5.496;2023-04-27T12:35:29;102080.28;;;23.22;32.73
69630;BME280;56857;52.212;5.496;2023-04-27T12:37:54;102070.59;;;23.14;32.40
69630;BME280;56857;52.212;5.496;2023-04-27T12:40:19;102066.59;;;23.17;32.87
69630;BME280;56857;52.212;5.496;2023-04-27T12:42:45;102065.69;;;22.73;32.06
69630;BME280;56857;52.212;5.496;2023-04-27T12:45:10;102060.13;;;22.04;32.62
69630;BME280;56857;52.212;5.496;2023-04-27T12:47:35;102055.50;;;22.50;34.41
69630;BME280;56857;52.212;5.496;2023-04-27T12:50:01;102055.53;;;23.00;33.44
69630;BME280;56857;52.212;5.496;2023-04-27T12:52:26;102049.88;;;23.01;32.42
69630;BME280;56857;52.212;5.496;2023-04-27T12:54:51;102061.47;;;23.08;32.21
69630;BME280;56857;52.212;5.496;2023-04-27T12:57:17;102066.50;;;22.80;33.01
69630;BME280;56857;52.212;5.496;2023-04-27T12:59:42;102059.84;;;22.19;31.94